createdAt,value
2023-03-13T00:08:14.629Z,7
2023-03-13T00:18:14.606Z,7
2023-03-13T00:28:14.614Z,7
2023-03-13T00:33:14.594Z,7
2023-03-13T00:43:14.595Z,7
2023-03-13T00:48:14.614Z,7
2023-03-13T00:53:14.589Z,7
2023-03-13T00:58:14.592Z,7
2023-03-13T01:03:14.704Z,7
2023-03-13T01:13:14.640Z,7
2023-03-13T01:18:14.604Z,7
2023-03-13T01:23:14.629Z,7
2023-03-13T01:33:14.638Z,7
2023-03-13T01:38:14.625Z,7
2023-03-13T01:43:26.053Z,7
2023-03-13T01:48:14.632Z,7
2023-03-13T01:58:14.656Z,7
2023-03-13T02:03:14.689Z,7
2023-03-13T02:13:14.630Z,7.1
2023-03-13T02:18:14.656Z,7.1
2023-03-13T02:28:14.636Z,7.1
2023-03-13T02:33:14.643Z,7
2023-03-13T02:43:14.661Z,7
2023-03-13T02:48:14.638Z,7.1
2023-03-13T02:58:14.723Z,7.2
2023-03-13T03:08:14.754Z,7.2
2023-03-13T03:18:14.664Z,7.3
2023-03-13T03:23:14.673Z,7.3
2023-03-13T03:33:14.693Z,7.3
2023-03-13T03:38:14.670Z,7.3
2023-03-13T03:43:14.686Z,7.3
2023-03-13T03:53:14.697Z,7.3
2023-03-13T04:03:14.756Z,7.4
2023-03-13T04:08:14.699Z,7.4
2023-03-13T04:18:14.712Z,7.3
2023-03-13T04:28:14.684Z,7.3
2023-03-13T04:33:14.701Z,7.3
2023-03-13T04:38:14.726Z,7.3
2023-03-13T04:48:14.726Z,7.2
2023-03-13T04:53:14.746Z,7.4
2023-03-13T05:03:14.730Z,7.4
2023-03-13T05:13:14.729Z,7.4
2023-03-13T05:23:14.755Z,7.3
2023-03-13T05:33:14.738Z,7.3
2023-03-13T05:43:14.765Z,7.3
2023-03-13T05:53:14.704Z,7.3
2023-03-13T05:58:14.719Z,7.4
2023-03-13T06:03:14.766Z,7.5
2023-03-13T06:13:20.017Z,7.4
2023-03-13T06:18:14.708Z,7.4
2023-03-13T06:23:14.757Z,7.3
2023-03-13T06:28:14.720Z,7.3
2023-03-13T06:38:14.808Z,7.3
2023-03-13T06:48:14.796Z,7.3
2023-03-13T06:58:29.129Z,7.5
2023-03-13T07:03:14.751Z,7.6
2023-03-13T07:08:14.783Z,7.5
2023-03-13T07:13:14.806Z,7.5
2023-03-13T07:23:14.772Z,7.4
2023-03-13T07:33:14.811Z,7.4
2023-03-13T07:43:14.771Z,7.4
2023-03-13T07:48:14.778Z,7.4
2023-03-13T07:58:14.807Z,7.5
2023-03-13T08:08:14.761Z,7.5
2023-03-13T08:13:14.780Z,7.5
2023-03-13T08:18:14.811Z,7.4
2023-03-13T08:28:14.759Z,7.4
2023-03-13T08:33:14.787Z,7.4
2023-03-13T08:38:14.810Z,7.4
2023-03-13T08:43:14.810Z,7.4
2023-03-13T08:48:14.826Z,7.4
2023-03-13T08:58:14.866Z,7.5
2023-03-13T09:03:14.870Z,7.5
2023-03-13T09:08:14.847Z,7.5
2023-03-13T09:13:14.834Z,7.5
2023-03-13T09:23:14.856Z,7.4
2023-03-13T09:28:14.855Z,7.4
2023-03-13T09:38:14.875Z,7.5
2023-03-13T09:48:14.870Z,7.4
2023-03-13T09:53:14.868Z,7.5
2023-03-13T09:58:14.863Z,7.5
2023-03-13T10:03:14.877Z,7.5
2023-03-13T10:13:14.925Z,7.5
2023-03-13T10:23:14.878Z,7.5
2023-03-13T10:28:14.908Z,7.5
2023-03-13T10:38:14.963Z,7.5
2023-03-13T10:48:14.910Z,7.5
2023-03-13T10:53:14.902Z,7.5
2023-03-13T11:03:15.103Z,7.6
2023-03-13T11:08:15.031Z,7.6
2023-03-13T11:18:14.911Z,7.5
2023-03-13T11:28:14.979Z,7.5
2023-03-13T11:38:14.965Z,7.5
2023-03-13T11:48:14.963Z,7.6
2023-03-13T11:53:15.210Z,7.6
2023-03-13T12:03:15.031Z,7.6
2023-03-13T12:13:14.995Z,7.6
2023-03-13T12:23:14.958Z,7.6
2023-03-13T12:28:15.079Z,7.6
2023-03-13T12:33:14.998Z,7.6
2023-03-13T12:43:14.963Z,7.6
2023-03-13T12:48:15.054Z,7.6
2023-03-13T12:53:14.994Z,7.7
2023-03-13T13:03:14.996Z,7.7
2023-03-13T13:13:15.100Z,7.6
2023-03-13T13:18:14.981Z,7.6
2023-03-13T13:23:15.003Z,7.6
2023-03-13T13:28:15.017Z,7.7
2023-03-13T13:38:15.053Z,7.7
2023-03-13T13:48:15.008Z,7.7
2023-03-13T13:53:15.013Z,7.7
2023-03-13T13:58:15.048Z,7.7
2023-03-13T14:08:15.008Z,7.7
2023-03-13T14:13:15.234Z,7.7
2023-03-13T14:23:15.105Z,7.7
2023-03-13T14:33:15.049Z,7.7
2023-03-13T14:38:15.061Z,7.7
2023-03-13T14:48:15.531Z,7.8
2023-03-13T14:58:15.097Z,7.8
2023-03-13T15:08:15.185Z,7.7
2023-03-13T15:18:15.089Z,7.7
2023-03-13T15:23:15.181Z,7.8
2023-03-13T15:33:15.118Z,7.8
2023-03-13T15:38:15.098Z,7.8
2023-03-13T15:48:15.108Z,7.8
2023-03-13T15:53:15.142Z,7.8
2023-03-13T15:58:15.116Z,7.8
2023-03-13T16:08:20.571Z,7.8
2023-03-13T16:13:15.161Z,7.7
2023-03-13T16:23:15.122Z,7.7
2023-03-13T16:28:15.130Z,7.7
2023-03-13T16:33:15.279Z,7.8
2023-03-13T16:38:15.114Z,7.7
2023-03-13T16:43:15.192Z,7.8
2023-03-13T16:48:15.201Z,7.8
2023-03-13T16:58:15.203Z,7.8
2023-03-13T17:08:15.218Z,7.7
2023-03-13T17:18:15.183Z,7.7
2023-03-13T17:28:15.171Z,7.7
2023-03-13T17:33:15.208Z,7.7
2023-03-13T17:38:15.214Z,7.7
2023-03-13T17:48:15.184Z,7.7
2023-03-13T17:58:15.265Z,7.7
2023-03-13T18:08:15.176Z,7.7
2023-03-13T18:13:15.190Z,7.7
2023-03-13T18:23:15.218Z,7.7
2023-03-13T18:28:15.210Z,7.7
2023-03-13T18:33:15.220Z,7.7
2023-03-13T18:43:15.226Z,7.7
2023-03-13T18:53:15.214Z,7.6
2023-03-13T18:58:15.206Z,7.6
2023-03-13T19:08:15.282Z,7.7
2023-03-13T19:18:15.272Z,7.6
2023-03-13T19:28:15.279Z,7.7
2023-03-13T19:38:15.254Z,7.7
2023-03-13T19:43:15.279Z,7.7
2023-03-13T19:53:15.298Z,7.6
2023-03-13T20:03:15.258Z,7.6
2023-03-13T20:08:15.282Z,7.6
2023-03-13T20:13:15.305Z,7.6
2023-03-13T20:23:15.311Z,7.7
2023-03-13T20:28:15.305Z,7.7
2023-03-13T20:38:15.527Z,7.9
2023-03-13T20:48:15.327Z,7.7
2023-03-13T20:58:15.376Z,7.7
2023-03-13T21:08:15.344Z,7.7
2023-03-13T21:18:15.369Z,7.8
2023-03-13T21:23:15.346Z,7.7
2023-03-13T21:33:15.353Z,7.7
2023-03-13T21:38:15.476Z,7.7
2023-03-13T21:48:15.378Z,7.7
2023-03-13T21:53:15.357Z,7.7
2023-03-13T21:58:15.408Z,7.6
2023-03-13T22:03:15.492Z,7.6
2023-03-13T22:08:15.377Z,7.7
2023-03-13T22:18:15.405Z,7.7
2023-03-13T22:23:15.415Z,7.7
2023-03-13T22:28:15.433Z,7.7
2023-03-13T22:33:15.417Z,7.6
2023-03-13T22:43:15.432Z,7.6
2023-03-13T22:53:15.412Z,7.7
2023-03-13T22:58:15.408Z,7.6
2023-03-13T23:08:15.458Z,7.7
2023-03-13T23:13:15.430Z,7.7
2023-03-13T23:23:15.433Z,7.7
2023-03-13T23:28:15.478Z,7.7
2023-03-13T23:38:15.444Z,7.7
2023-03-13T23:48:15.448Z,7.7
2023-03-13T23:58:15.443Z,7.7
